Terminal Aerodrome Forecast
Issued by NWS New Orleans/Baton Rouge, LA

Home | Current Version | Previous Version | Text Only | Print | Product List | Glossary On
Versions: 1 2 3 4 5 6 7 8 9 10 11 12 13 14 15 16 17 18 19
000
FTUS44 KLIX 240500
TAFBTR
TAF
KBTR 240525Z 2406/2506 23009KT P6SM SCT013
      TEMPO 2406/2410 5SM BR BKN013
     FM241000 28009KT 5SM BR BKN015
     FM241300 30009KT P6SM SCT015
     FM241500 31009KT P6SM SCT250=

USA.gov is the U.S. government's official web portal to all federal, state and local government web resources and services.